sensor_id;sensor_type;location;lat;lon;timestamp;pressure;altitude;pressure_sealevel;temperature;humidity
62849;BME280;48941;49.516;8.286;2023-06-19T00:02:19;99850.38;;;24.91;43.57
62849;BME280;48941;49.516;8.286;2023-06-19T00:04:46;99848.94;;;24.88;44.04
62849;BME280;48941;49.516;8.286;2023-06-19T00:07:14;99854.69;;;24.80;44.35
62849;BME280;48941;49.516;8.286;2023-06-19T00:09:42;99851.63;;;24.76;44.25
62849;BME280;48941;49.516;8.286;2023-06-19T00:12:10;99847.22;;;24.75;44.03
62849;BME280;48941;49.516;8.286;2023-06-19T00:14:38;99843.09;;;24.73;43.81
62849;BME280;48941;49.516;8.286;2023-06-19T00:17:07;99835.56;;;24.68;43.86
62849;BME280;48941;49.516;8.286;2023-06-19T00:19:35;99835.44;;;24.63;44.02
62849;BME280;48941;49.516;8.286;2023-06-19T00:22:04;99836.38;;;24.57;44.00
62849;BME280;48941;49.516;8.286;2023-06-19T00:24:31;99834.31;;;24.52;44.04
62849;BME280;48941;49.516;8.286;2023-06-19T00:26:59;99828.47;;;24.49;44.13
62849;BME280;48941;49.516;8.286;2023-06-19T00:29:29;99820.16;;;24.43;44.41
62849;BME280;48941;49.516;8.286;2023-06-19T00:31:58;99817.06;;;24.40;44.35
62849;BME280;48941;49.516;8.286;2023-06-19T00:34:29;99821.06;;;24.37;44.66
62849;BME280;48941;49.516;8.286;2023-06-19T00:36:58;99821.06;;;24.37;44.75
62849;BME280;48941;49.516;8.286;2023-06-19T00:39:26;99822.59;;;24.33;44.82
62849;BME280;48941;49.516;8.286;2023-06-19T00:41:54;99819.34;;;24.24;45.15
62849;BME280;48941;49.516;8.286;2023-06-19T00:44:22;99828.16;;;24.20;45.29
62849;BME280;48941;49.516;8.286;2023-06-19T00:46:51;99829.25;;;24.19;45.30
62849;BME280;48941;49.516;8.286;2023-06-19T00:49:28;99822.34;;;24.16;45.12
62849;BME280;48941;49.516;8.286;2023-06-19T00:51:57;99816.53;;;24.13;45.32
62849;BME280;48941;49.516;8.286;2023-06-19T00:54:25;99816.97;;;24.10;45.14
62849;BME280;48941;49.516;8.286;2023-06-19T00:56:53;99836.84;;;24.10;45.00
62849;BME280;48941;49.516;8.286;2023-06-19T00:59:21;99856.75;;;24.11;45.10
62849;BME280;48941;49.516;8.286;2023-06-19T01:01:49;99856.78;;;24.04;45.33
62849;BME280;48941;49.516;8.286;2023-06-19T01:04:17;99857.47;;;23.99;45.61
62849;BME280;48941;49.516;8.286;2023-06-19T01:06:52;99850.22;;;23.93;45.99
62849;BME280;48941;49.516;8.286;2023-06-19T01:09:28;99855.03;;;23.91;46.22
62849;BME280;48941;49.516;8.286;2023-06-19T01:12:15;99855.72;;;23.87;46.25
62849;BME280;48941;49.516;8.286;2023-06-19T01:14:51;99855.47;;;23.88;46.09
62849;BME280;48941;49.516;8.286;2023-06-19T01:17:21;99864.84;;;23.92;45.90
62849;BME280;48941;49.516;8.286;2023-06-19T01:19:49;99882.03;;;23.93;45.62
62849;BME280;48941;49.516;8.286;2023-06-19T01:22:26;99890.78;;;23.95;45.99
62849;BME280;48941;49.516;8.286;2023-06-19T01:24:54;99891.81;;;23.94;46.22
62849;BME280;48941;49.516;8.286;2023-06-19T01:27:23;99892.66;;;23.94;46.19
62849;BME280;48941;49.516;8.286;2023-06-19T01:29:52;99891.09;;;24.05;46.31
62849;BME280;48941;49.516;8.286;2023-06-19T01:32:25;99908.66;;;24.09;46.44
62849;BME280;48941;49.516;8.286;2023-06-19T01:34:58;99902.31;;;24.15;46.24
62849;BME280;48941;49.516;8.286;2023-06-19T01:37:28;99898.31;;;24.18;46.06
62849;BME280;48941;49.516;8.286;2023-06-19T01:40:02;99892.41;;;24.21;46.65
62849;BME280;48941;49.516;8.286;2023-06-19T01:42:32;99890.91;;;24.25;46.92
62849;BME280;48941;49.516;8.286;2023-06-19T01:45:02;99890.44;;;24.28;46.56
62849;BME280;48941;49.516;8.286;2023-06-19T01:47:30;99893.56;;;24.32;46.40
62849;BME280;48941;49.516;8.286;2023-06-19T01:49:58;99898.56;;;24.35;46.37
62849;BME280;48941;49.516;8.286;2023-06-19T01:52:27;99892.03;;;24.36;46.43
62849;BME280;48941;49.516;8.286;2023-06-19T01:54:55;99900.44;;;24.34;46.67
62849;BME280;48941;49.516;8.286;2023-06-19T01:57:23;99899.00;;;24.32;46.84
62849;BME280;48941;49.516;8.286;2023-06-19T01:59:51;99882.28;;;24.28;47.00
62849;BME280;48941;49.516;8.286;2023-06-19T02:02:19;99882.28;;;24.28;47.20
62849;BME280;48941;49.516;8.286;2023-06-19T02:04:46;99891.31;;;24.29;47.38
62849;BME280;48941;49.516;8.286;2023-06-19T02:07:14;99883.13;;;24.29;47.59
62849;BME280;48941;49.516;8.286;2023-06-19T02:09:43;99882.97;;;24.23;47.77
62849;BME280;48941;49.516;8.286;2023-06-19T02:12:11;99891.94;;;24.24;47.91
62849;BME280;48941;49.516;8.286;2023-06-19T02:14:39;99894.25;;;24.27;47.93
62849;BME280;48941;49.516;8.286;2023-06-19T02:17:07;99908.88;;;24.26;47.81
62849;BME280;48941;49.516;8.286;2023-06-19T02:19:35;99916.00;;;24.27;48.01
62849;BME280;48941;49.516;8.286;2023-06-19T02:22:03;99916.22;;;24.25;48.20
62849;BME280;48941;49.516;8.286;2023-06-19T02:24:31;99925.22;;;24.26;48.05
62849;BME280;48941;49.516;8.286;2023-06-19T02:27:00;99939.69;;;24.27;48.11
62849;BME280;48941;49.516;8.286;2023-06-19T02:29:28;99938.59;;;24.28;48.19
62849;BME280;48941;49.516;8.286;2023-06-19T02:31:56;99929.00;;;24.25;48.37
62849;BME280;48941;49.516;8.286;2023-06-19T02:34:24;99923.19;;;24.21;48.07
62849;BME280;48941;49.516;8.286;2023-06-19T02:36:52;99931.13;;;24.23;48.41
62849;BME280;48941;49.516;8.286;2023-06-19T02:39:20;99936.34;;;24.24;48.10
62849;BME280;48941;49.516;8.286;2023-06-19T02:41:49;99940.09;;;24.23;48.19
62849;BME280;48941;49.516;8.286;2023-06-19T02:44:18;99946.38;;;24.24;48.05
62849;BME280;48941;49.516;8.286;2023-06-19T02:46:46;99946.63;;;24.22;48.19
62849;BME280;48941;49.516;8.286;2023-06-19T02:49:14;99949.09;;;24.24;48.31
62849;BME280;48941;49.516;8.286;2023-06-19T02:51:42;99948.06;;;24.25;48.17
62849;BME280;48941;49.516;8.286;2023-06-19T02:54:10;99948.66;;;24.27;48.05
62849;BME280;48941;49.516;8.286;2023-06-19T02:56:38;99953.03;;;24.28;47.76
62849;BME280;48941;49.516;8.286;2023-06-19T02:59:06;99963.31;;;24.26;48.02
62849;BME280;48941;49.516;8.286;2023-06-19T03:01:35;99966.50;;;24.23;48.19
62849;BME280;48941;49.516;8.286;2023-06-19T03:04:03;99977.81;;;24.20;48.42
62849;BME280;48941;49.516;8.286;2023-06-19T03:06:31;99981.59;;;24.19;48.47
62849;BME280;48941;49.516;8.286;2023-06-19T03:09:05;99982.03;;;24.16;48.58
62849;BME280;48941;49.516;8.286;2023-06-19T03:11:38;99986.47;;;24.10;49.25
62849;BME280;48941;49.516;8.286;2023-06-19T03:14:07;99992.38;;;24.07;49.82
62849;BME280;48941;49.516;8.286;2023-06-19T03:16:36;100001.19;;;24.02;49.84
62849;BME280;48941;49.516;8.286;2023-06-19T03:19:04;99995.16;;;23.94;50.74
62849;BME280;48941;49.516;8.286;2023-06-19T03:21:32;100001.28;;;23.89;52.13
62849;BME280;48941;49.516;8.286;2023-06-19T03:24:02;100001.16;;;23.77;53.98
62849;BME280;48941;49.516;8.286;2023-06-19T03:26:30;100013.28;;;23.68;55.27
62849;BME280;48941;49.516;8.286;2023-06-19T03:28:58;100016.06;;;23.61;55.95
62849;BME280;48941;49.516;8.286;2023-06-19T03:31:25;100012.16;;;23.51;57.32
62849;BME280;48941;49.516;8.286;2023-06-19T03:33:55;100016.16;;;23.41;58.32
62849;BME280;48941;49.516;8.286;2023-06-19T03:36:22;100021.84;;;23.33;59.08
62849;BME280;48941;49.516;8.286;2023-06-19T03:38:51;100022.91;;;23.25;59.54
62849;BME280;48941;49.516;8.286;2023-06-19T03:41:20;100026.09;;;23.16;60.48
62849;BME280;48941;49.516;8.286;2023-06-19T03:43:48;100023.19;;;23.04;61.54
62849;BME280;48941;49.516;8.286;2023-06-19T03:46:15;100031.75;;;22.94;62.32
62849;BME280;48941;49.516;8.286;2023-06-19T03:48:43;100024.91;;;22.85;63.19
62849;BME280;48941;49.516;8.286;2023-06-19T03:51:13;100024.91;;;22.78;64.31
62849;BME280;48941;49.516;8.286;2023-06-19T03:53:40;100032.47;;;22.63;64.28
62849;BME280;48941;49.516;8.286;2023-06-19T03:56:08;100026.81;;;22.58;64.86
62849;BME280;48941;49.516;8.286;2023-06-19T03:58:36;100032.06;;;22.53;64.91
62849;BME280;48941;49.516;8.286;2023-06-19T04:01:04;100029.13;;;22.47;65.39
62849;BME280;48941;49.516;8.286;2023-06-19T04:03:32;100028.28;;;22.40;65.57
62849;BME280;48941;49.516;8.286;2023-06-19T04:06:00;100033.09;;;22.38;66.14
62849;BME280;48941;49.516;8.286;2023-06-19T04:08:29;100028.72;;;22.37;66.51
62849;BME280;48941;49.516;8.286;2023-06-19T04:10:57;100029.97;;;22.35;66.47
62849;BME280;48941;49.516;8.286;2023-06-19T04:13:25;100031.44;;;22.37;66.40
62849;BME280;48941;49.516;8.286;2023-06-19T04:15:53;100032.47;;;22.36;66.57
62849;BME280;48941;49.516;8.286;2023-06-19T04:18:21;100030.38;;;22.38;66.39
62849;BME280;48941;49.516;8.286;2023-06-19T04:20:49;100033.72;;;22.40;66.01
62849;BME280;48941;49.516;8.286;2023-06-19T04:23:16;100029.97;;;22.41;65.97
62849;BME280;48941;49.516;8.286;2023-06-19T04:25:46;100040.81;;;22.41;66.00
62849;BME280;48941;49.516;8.286;2023-06-19T04:28:14;100046.66;;;22.45;65.86
62849;BME280;48941;49.516;8.286;2023-06-19T04:30:41;100043.72;;;22.46;65.54
62849;BME280;48941;49.516;8.286;2023-06-19T04:33:09;100052.47;;;22.48;64.82
62849;BME280;48941;49.516;8.286;2023-06-19T04:35:37;100043.31;;;22.50;63.75
62849;BME280;48941;49.516;8.286;2023-06-19T04:38:07;100041.84;;;22.60;62.98
62849;BME280;48941;49.516;8.286;2023-06-19T04:40:35;100051.88;;;22.73;61.59
62849;BME280;48941;49.516;8.286;2023-06-19T04:43:04;100043.91;;;22.85;60.97
62849;BME280;48941;49.516;8.286;2023-06-19T04:45:33;100037.81;;;22.96;59.78
62849;BME280;48941;49.516;8.286;2023-06-19T04:48:00;100047.03;;;23.09;59.40
62849;BME280;48941;49.516;8.286;2023-06-19T04:50:30;100040.09;;;23.19;59.42
62849;BME280;48941;49.516;8.286;2023-06-19T04:52:58;100045.06;;;23.29;59.07
62849;BME280;48941;49.516;8.286;2023-06-19T04:55:25;100051.91;;;23.38;58.50
62849;BME280;48941;49.516;8.286;2023-06-19T04:57:53;100054.00;;;23.43;58.28
62849;BME280;48941;49.516;8.286;2023-06-19T05:00:22;100054.81;;;23.43;58.31
62849;BME280;48941;49.516;8.286;2023-06-19T05:02:51;100050.22;;;23.44;58.36
62849;BME280;48941;49.516;8.286;2023-06-19T05:05:19;100053.13;;;23.49;58.20
62849;BME280;48941;49.516;8.286;2023-06-19T05:07:50;100059.81;;;23.53;58.08
62849;BME280;48941;49.516;8.286;2023-06-19T05:10:17;100054.16;;;23.55;57.90
62849;BME280;48941;49.516;8.286;2023-06-19T05:12:45;100054.97;;;23.55;58.13
62849;BME280;48941;49.516;8.286;2023-06-19T05:15:13;100065.84;;;23.55;58.28
62849;BME280;48941;49.516;8.286;2023-06-19T05:17:42;100073.81;;;23.57;58.34
62849;BME280;48941;49.516;8.286;2023-06-19T05:20:14;100072.31;;;23.61;58.57
62849;BME280;48941;49.516;8.286;2023-06-19T05:22:42;100083.00;;;23.56;59.01
62849;BME280;48941;49.516;8.286;2023-06-19T05:25:10;100075.66;;;23.56;60.04
62849;BME280;48941;49.516;8.286;2023-06-19T05:27:38;100070.47;;;23.55;60.13
62849;BME280;48941;49.516;8.286;2023-06-19T05:30:07;100074.44;;;23.52;60.26
62849;BME280;48941;49.516;8.286;2023-06-19T05:32:35;100074.00;;;23.55;60.56
62849;BME280;48941;49.516;8.286;2023-06-19T05:35:05;100071.69;;;23.59;60.44
62849;BME280;48941;49.516;8.286;2023-06-19T05:37:33;100072.31;;;23.61;60.75
62849;BME280;48941;49.516;8.286;2023-06-19T05:40:01;100080.22;;;23.69;60.55
62849;BME280;48941;49.516;8.286;2023-06-19T05:42:30;100079.81;;;23.65;60.65
62849;BME280;48941;49.516;8.286;2023-06-19T05:44:58;100082.72;;;23.71;60.78
62849;BME280;48941;49.516;8.286;2023-06-19T05:47:25;100094.41;;;23.78;60.82
62849;BME280;48941;49.516;8.286;2023-06-19T05:49:54;100083.53;;;23.84;60.16
62849;BME280;48941;49.516;8.286;2023-06-19T05:52:23;100092.06;;;23.88;60.38
62849;BME280;48941;49.516;8.286;2023-06-19T05:54:51;100086.41;;;23.90;60.30
62849;BME280;48941;49.516;8.286;2023-06-19T05:57:20;100088.91;;;23.91;60.37
62849;BME280;48941;49.516;8.286;2023-06-19T05:59:48;100094.53;;;23.96;60.08
62849;BME280;48941;49.516;8.286;2023-06-19T06:02:16;100097.44;;;24.01;59.58
62849;BME280;48941;49.516;8.286;2023-06-19T06:04:45;100103.69;;;24.02;60.00
62849;BME280;48941;49.516;8.286;2023-06-19T06:07:13;100104.06;;;24.12;60.04
62849;BME280;48941;49.516;8.286;2023-06-19T06:09:42;100109.75;;;24.11;59.86
62849;BME280;48941;49.516;8.286;2023-06-19T06:12:10;100106.53;;;24.20;59.67
62849;BME280;48941;49.516;8.286;2023-06-19T06:14:39;100107.94;;;24.30;59.39
62849;BME280;48941;49.516;8.286;2023-06-19T06:17:07;100108.88;;;24.42;59.16
62849;BME280;48941;49.516;8.286;2023-06-19T06:19:35;100110.34;;;24.44;59.26
62849;BME280;48941;49.516;8.286;2023-06-19T06:22:04;100111.56;;;24.49;58.75
62849;BME280;48941;49.516;8.286;2023-06-19T06:24:32;100105.69;;;24.52;58.67
62849;BME280;48941;49.516;8.286;2023-06-19T06:27:01;100101.03;;;24.59;58.73
62849;BME280;48941;49.516;8.286;2023-06-19T06:29:29;100102.47;;;24.61;58.95
62849;BME280;48941;49.516;8.286;2023-06-19T06:32:03;100098.72;;;24.62;59.12
62849;BME280;48941;49.516;8.286;2023-06-19T06:34:31;100099.31;;;24.64;58.29
62849;BME280;48941;49.516;8.286;2023-06-19T06:36:59;100094.94;;;24.63;58.15
62849;BME280;48941;49.516;8.286;2023-06-19T06:39:32;100110.22;;;24.64;57.70
62849;BME280;48941;49.516;8.286;2023-06-19T06:42:01;100113.97;;;24.63;57.79
62849;BME280;48941;49.516;8.286;2023-06-19T06:44:29;100113.56;;;24.67;58.45
62849;BME280;48941;49.516;8.286;2023-06-19T06:46:57;100123.56;;;24.73;58.36
62849;BME280;48941;49.516;8.286;2023-06-19T06:49:25;100122.66;;;24.79;57.66
62849;BME280;48941;49.516;8.286;2023-06-19T06:51:53;100120.09;;;24.84;57.42
62849;BME280;48941;49.516;8.286;2023-06-19T06:54:23;100116.25;;;24.92;57.55
62849;BME280;48941;49.516;8.286;2023-06-19T06:56:51;100128.13;;;24.97;57.32
62849;BME280;48941;49.516;8.286;2023-06-19T06:59:24;100140.94;;;24.97;57.52
62849;BME280;48941;49.516;8.286;2023-06-19T07:01:54;100137.91;;;25.05;57.74
62849;BME280;48941;49.516;8.286;2023-06-19T07:04:23;100132.19;;;25.13;56.78
62849;BME280;48941;49.516;8.286;2023-06-19T07:06:51;100143.25;;;25.18;56.53
62849;BME280;48941;49.516;8.286;2023-06-19T07:09:18;100146.53;;;25.27;55.91
62849;BME280;48941;49.516;8.286;2023-06-19T07:11:48;100148.19;;;25.28;56.13
62849;BME280;48941;49.516;8.286;2023-06-19T07:14:19;100149.56;;;25.37;56.38
62849;BME280;48941;49.516;8.286;2023-06-19T07:16:48;100148.88;;;25.42;55.88
62849;BME280;48941;49.516;8.286;2023-06-19T07:19:16;100154.59;;;25.40;56.02
62849;BME280;48941;49.516;8.286;2023-06-19T07:21:44;100148.22;;;25.47;55.95
62849;BME280;48941;49.516;8.286;2023-06-19T07:24:12;100153.81;;;25.52;55.56
62849;BME280;48941;49.516;8.286;2023-06-19T07:26:40;100161.06;;;25.58;55.74
62849;BME280;48941;49.516;8.286;2023-06-19T07:29:08;100158.91;;;25.67;55.48
62849;BME280;48941;49.516;8.286;2023-06-19T07:31:36;100161.75;;;25.72;55.67
62849;BME280;48941;49.516;8.286;2023-06-19T07:34:05;100168.19;;;25.77;54.89
62849;BME280;48941;49.516;8.286;2023-06-19T07:36:33;100169.56;;;25.87;54.63
62849;BME280;48941;49.516;8.286;2023-06-19T07:39:01;100163.63;;;25.90;54.61
62849;BME280;48941;49.516;8.286;2023-06-19T07:41:29;100165.97;;;25.86;54.38
62849;BME280;48941;49.516;8.286;2023-06-19T07:43:57;100174.75;;;25.88;54.69
62849;BME280;48941;49.516;8.286;2023-06-19T07:46:25;100179.00;;;25.84;54.44
62849;BME280;48941;49.516;8.286;2023-06-19T07:48:53;100184.84;;;25.88;54.41
62849;BME280;48941;49.516;8.286;2023-06-19T07:51:22;100192.00;;;25.89;54.65
62849;BME280;48941;49.516;8.286;2023-06-19T07:53:50;100196.00;;;25.86;54.69
62849;BME280;48941;49.516;8.286;2023-06-19T07:56:18;100191.56;;;25.92;54.58
62849;BME280;48941;49.516;8.286;2023-06-19T07:58:46;100190.50;;;25.93;54.29
62849;BME280;48941;49.516;8.286;2023-06-19T08:01:14;100197.88;;;25.92;54.86
62849;BME280;48941;49.516;8.286;2023-06-19T08:03:42;100200.13;;;25.95;54.63
62849;BME280;48941;49.516;8.286;2023-06-19T08:06:10;100195.47;;;25.96;54.65
62849;BME280;48941;49.516;8.286;2023-06-19T08:08:39;100196.78;;;25.93;54.78
62849;BME280;48941;49.516;8.286;2023-06-19T08:11:07;100200.13;;;25.95;54.66
62849;BME280;48941;49.516;8.286;2023-06-19T08:13:35;100205.13;;;25.98;54.71
62849;BME280;48941;49.516;8.286;2023-06-19T08:16:03;100202.63;;;25.97;54.59
62849;BME280;48941;49.516;8.286;2023-06-19T08:18:31;100201.88;;;26.08;53.99
62849;BME280;48941;49.516;8.286;2023-06-19T08:20:59;100208.75;;;26.11;53.93
62849;BME280;48941;49.516;8.286;2023-06-19T08:23:27;100205.41;;;26.09;54.00
62849;BME280;48941;49.516;8.286;2023-06-19T08:25:56;100206.41;;;26.14;53.70
62849;BME280;48941;49.516;8.286;2023-06-19T08:28:24;100207.00;;;26.16;53.68
62849;BME280;48941;49.516;8.286;2023-06-19T08:30:52;100214.22;;;26.11;53.98
62849;BME280;48941;49.516;8.286;2023-06-19T08:33:20;100221.91;;;26.14;53.92
62849;BME280;48941;49.516;8.286;2023-06-19T08:35:48;100211.09;;;26.07;53.65
62849;BME280;48941;49.516;8.286;2023-06-19T08:38:17;100214.88;;;26.06;53.65
62849;BME280;48941;49.516;8.286;2023-06-19T08:40:45;100217.00;;;26.04;53.58
62849;BME280;48941;49.516;8.286;2023-06-19T08:43:14;100212.63;;;26.03;53.71
62849;BME280;48941;49.516;8.286;2023-06-19T08:45:42;100215.56;;;26.01;53.65
62849;BME280;48941;49.516;8.286;2023-06-19T08:48:13;100219.44;;;25.94;53.61
62849;BME280;48941;49.516;8.286;2023-06-19T08:50:41;100219.44;;;25.94;53.74
62849;BME280;48941;49.516;8.286;2023-06-19T08:53:09;100221.94;;;25.95;53.80
62849;BME280;48941;49.516;8.286;2023-06-19T08:55:37;100214.59;;;25.96;54.24
62849;BME280;48941;49.516;8.286;2023-06-19T08:58:05;100223.38;;;25.98;54.29
62849;BME280;48941;49.516;8.286;2023-06-19T09:00:34;100221.19;;;26.07;54.03
62849;BME280;48941;49.516;8.286;2023-06-19T09:03:03;100219.19;;;26.14;53.33
62849;BME280;48941;49.516;8.286;2023-06-19T09:05:41;100223.38;;;26.16;53.39
62849;BME280;48941;49.516;8.286;2023-06-19T09:08:17;100223.13;;;26.18;53.21
62849;BME280;48941;49.516;8.286;2023-06-19T09:10:55;100222.06;;;26.19;53.03
62849;BME280;48941;49.516;8.286;2023-06-19T09:13:23;100222.06;;;26.19;53.19
62849;BME280;48941;49.516;8.286;2023-06-19T09:15:59;100223.28;;;26.23;53.01
62849;BME280;48941;49.516;8.286;2023-06-19T09:18:29;100215.00;;;26.30;53.11
62849;BME280;48941;49.516;8.286;2023-06-19T09:20:59;100213.94;;;26.31;52.76
62849;BME280;48941;49.516;8.286;2023-06-19T09:23:27;100217.88;;;26.35;52.23
62849;BME280;48941;49.516;8.286;2023-06-19T09:25:57;100215.53;;;26.38;51.93
62849;BME280;48941;49.516;8.286;2023-06-19T09:28:27;100213.28;;;26.47;51.63
62849;BME280;48941;49.516;8.286;2023-06-19T09:30:56;100213.19;;;26.54;51.43
62849;BME280;48941;49.516;8.286;2023-06-19T09:33:28;100213.56;;;26.57;51.53
62849;BME280;48941;49.516;8.286;2023-06-19T09:35:57;100215.75;;;26.67;51.34
62849;BME280;48941;49.516;8.286;2023-06-19T09:38:27;100214.44;;;26.70;52.01
62849;BME280;48941;49.516;8.286;2023-06-19T09:40:56;100211.22;;;26.61;52.01
62849;BME280;48941;49.516;8.286;2023-06-19T09:43:26;100214.94;;;26.67;52.17
62849;BME280;48941;49.516;8.286;2023-06-19T09:45:58;100208.97;;;26.70;51.78
62849;BME280;48941;49.516;8.286;2023-06-19T09:48:30;100208.09;;;26.99;51.55
62849;BME280;48941;49.516;8.286;2023-06-19T09:51:01;100211.34;;;27.32;50.39
62849;BME280;48941;49.516;8.286;2023-06-19T09:53:30;100209.19;;;27.57;49.18
62849;BME280;48941;49.516;8.286;2023-06-19T09:55:59;100207.16;;;27.76;48.12
62849;BME280;48941;49.516;8.286;2023-06-19T09:58:27;100199.28;;;27.92;48.04
62849;BME280;48941;49.516;8.286;2023-06-19T10:00:56;100198.38;;;28.15;47.56
62849;BME280;48941;49.516;8.286;2023-06-19T10:03:31;100219.50;;;28.31;47.08
62849;BME280;48941;49.516;8.286;2023-06-19T10:06:00;100202.78;;;28.45;46.31
62849;BME280;48941;49.516;8.286;2023-06-19T10:08:31;100205.88;;;28.48;46.17
62849;BME280;48941;49.516;8.286;2023-06-19T10:10:59;100205.75;;;28.43;45.95
62849;BME280;48941;49.516;8.286;2023-06-19T10:13:34;100197.31;;;28.45;46.26
62849;BME280;48941;49.516;8.286;2023-06-19T10:16:03;100195.88;;;28.54;46.30
62849;BME280;48941;49.516;8.286;2023-06-19T10:18:43;100196.63;;;28.66;45.81
62849;BME280;48941;49.516;8.286;2023-06-19T10:21:15;100193.47;;;28.91;45.15
62849;BME280;48941;49.516;8.286;2023-06-19T10:23:53;100192.75;;;29.13;44.97
62849;BME280;48941;49.516;8.286;2023-06-19T10:26:29;100189.66;;;29.26;43.55
62849;BME280;48941;49.516;8.286;2023-06-19T10:28:57;100178.66;;;29.43;42.20
62849;BME280;48941;49.516;8.286;2023-06-19T10:31:25;100190.19;;;29.45;42.20
62849;BME280;48941;49.516;8.286;2023-06-19T10:33:56;100183.53;;;29.58;41.86
62849;BME280;48941;49.516;8.286;2023-06-19T10:36:24;100176.25;;;29.69;41.44
62849;BME280;48941;49.516;8.286;2023-06-19T10:38:53;100176.94;;;29.76;41.48
62849;BME280;48941;49.516;8.286;2023-06-19T10:41:22;100172.72;;;29.90;40.94
62849;BME280;48941;49.516;8.286;2023-06-19T10:43:57;100175.63;;;30.06;39.97
62849;BME280;48941;49.516;8.286;2023-06-19T10:46:29;100171.56;;;30.13;39.68
62849;BME280;48941;49.516;8.286;2023-06-19T10:49:00;100165.38;;;30.23;39.14
62849;BME280;48941;49.516;8.286;2023-06-19T10:51:31;100157.88;;;30.41;38.54
62849;BME280;48941;49.516;8.286;2023-06-19T10:53:59;100150.94;;;30.60;38.18
62849;BME280;48941;49.516;8.286;2023-06-19T10:56:27;100158.25;;;30.82;37.54
62849;BME280;48941;49.516;8.286;2023-06-19T10:58:59;100162.25;;;31.01;37.63
62849;BME280;48941;49.516;8.286;2023-06-19T11:01:34;100161.19;;;31.07;36.76
62849;BME280;48941;49.516;8.286;2023-06-19T11:04:06;100165.63;;;31.08;37.26
62849;BME280;48941;49.516;8.286;2023-06-19T11:06:35;100159.63;;;31.16;37.29
62849;BME280;48941;49.516;8.286;2023-06-19T11:09:03;100150.91;;;31.35;37.24
62849;BME280;48941;49.516;8.286;2023-06-19T11:11:36;100150.13;;;31.40;35.96
62849;BME280;48941;49.516;8.286;2023-06-19T11:14:04;100136.63;;;31.38;36.38
62849;BME280;48941;49.516;8.286;2023-06-19T11:16:33;100137.53;;;31.49;36.57
62849;BME280;48941;49.516;8.286;2023-06-19T11:19:01;100136.09;;;31.41;36.72
62849;BME280;48941;49.516;8.286;2023-06-19T11:21:31;100138.56;;;31.38;36.90
62849;BME280;48941;49.516;8.286;2023-06-19T11:24:04;100131.94;;;31.33;37.57
62849;BME280;48941;49.516;8.286;2023-06-19T11:26:35;100133.53;;;31.24;38.11
62849;BME280;48941;49.516;8.286;2023-06-19T11:29:13;100134.34;;;31.25;38.13
62849;BME280;48941;49.516;8.286;2023-06-19T11:31:42;100125.59;;;31.28;38.03
62849;BME280;48941;49.516;8.286;2023-06-19T11:34:10;100127.53;;;31.32;37.39
62849;BME280;48941;49.516;8.286;2023-06-19T11:36:39;100131.69;;;31.40;37.12
62849;BME280;48941;49.516;8.286;2023-06-19T11:39:10;100121.00;;;31.44;36.85
62849;BME280;48941;49.516;8.286;2023-06-19T11:41:40;100119.31;;;31.43;36.55
62849;BME280;48941;49.516;8.286;2023-06-19T11:44:08;100119.03;;;31.39;37.04
62849;BME280;48941;49.516;8.286;2023-06-19T11:46:37;100122.06;;;31.38;36.90
62849;BME280;48941;49.516;8.286;2023-06-19T11:49:09;100118.72;;;31.30;36.42
62849;BME280;48941;49.516;8.286;2023-06-19T11:51:38;100120.94;;;31.33;36.89
62849;BME280;48941;49.516;8.286;2023-06-19T11:54:08;100115.72;;;31.37;36.88
62849;BME280;48941;49.516;8.286;2023-06-19T11:56:36;100120.44;;;31.42;36.72
62849;BME280;48941;49.516;8.286;2023-06-19T11:59:04;100116.94;;;31.51;36.35
62849;BME280;48941;49.516;8.286;2023-06-19T12:01:33;100120.50;;;31.52;36.94
62849;BME280;48941;49.516;8.286;2023-06-19T12:04:02;100122.69;;;31.50;36.34
62849;BME280;48941;49.516;8.286;2023-06-19T12:06:31;100120.69;;;31.40;36.78
62849;BME280;48941;49.516;8.286;2023-06-19T12:09:00;100110.50;;;31.35;36.56
62849;BME280;48941;49.516;8.286;2023-06-19T12:11:29;100111.84;;;31.28;36.72
62849;BME280;48941;49.516;8.286;2023-06-19T12:13:57;100116.47;;;31.22;37.41
62849;BME280;48941;49.516;8.286;2023-06-19T12:16:25;100110.06;;;31.11;37.63
62849;BME280;48941;49.516;8.286;2023-06-19T12:18:55;100106.69;;;30.94;37.85
62849;BME280;48941;49.516;8.286;2023-06-19T12:21:23;100101.69;;;30.91;38.37
62849;BME280;48941;49.516;8.286;2023-06-19T12:24:05;100109.38;;;30.89;38.67
62849;BME280;48941;49.516;8.286;2023-06-19T12:26:34;100102.16;;;30.83;38.86
62849;BME280;48941;49.516;8.286;2023-06-19T12:29:04;100094.97;;;30.76;39.64
62849;BME280;48941;49.516;8.286;2023-06-19T12:31:32;100101.69;;;30.91;38.90
62849;BME280;48941;49.516;8.286;2023-06-19T12:34:00;100101.75;;;30.96;38.88
62849;BME280;48941;49.516;8.286;2023-06-19T12:36:48;100096.81;;;31.03;39.27
62849;BME280;48941;49.516;8.286;2023-06-19T12:39:18;100094.41;;;31.12;39.05
62849;BME280;48941;49.516;8.286;2023-06-19T12:41:46;100099.72;;;31.24;37.80
62849;BME280;48941;49.516;8.286;2023-06-19T12:44:14;100094.56;;;31.38;37.59
62849;BME280;48941;49.516;8.286;2023-06-19T12:46:42;100092.63;;;31.43;37.73
62849;BME280;48941;49.516;8.286;2023-06-19T12:49:10;100097.13;;;31.54;37.54
62849;BME280;48941;49.516;8.286;2023-06-19T12:51:37;100086.44;;;31.68;37.84
62849;BME280;48941;49.516;8.286;2023-06-19T12:54:05;100090.59;;;31.81;37.91
62849;BME280;48941;49.516;8.286;2023-06-19T12:56:34;100095.84;;;31.88;37.41
62849;BME280;48941;49.516;8.286;2023-06-19T12:59:03;100101.91;;;31.95;37.28
62849;BME280;48941;49.516;8.286;2023-06-19T13:01:31;100098.91;;;31.91;36.90
62849;BME280;48941;49.516;8.286;2023-06-19T13:03:58;100094.72;;;31.79;37.02